createdAt,value
2018-01-12T00:00:34.591Z,-79
2018-01-12T00:01:34.270Z,-79
2018-01-12T00:02:33.367Z,-79
2018-01-12T00:03:34.198Z,-79
2018-01-12T00:04:33.637Z,-79
2018-01-12T00:05:32.872Z,-79
2018-01-12T00:06:33.229Z,-78
2018-01-12T00:07:32.732Z,-76
2018-01-12T00:08:33.036Z,-76
2018-01-12T00:09:33.507Z,-77
2018-01-12T00:10:33.045Z,-76
2018-01-12T00:11:33.574Z,-76
2018-01-12T00:12:32.986Z,-77
2018-01-12T00:13:33.528Z,-76
2018-01-12T00:14:34.131Z,-76
2018-01-12T00:15:33.389Z,-77
2018-01-12T00:16:33.782Z,-76
2018-01-12T00:17:33.007Z,-77
2018-01-12T00:18:33.354Z,-77
2018-01-12T00:19:33.651Z,-78
2018-01-12T00:20:33.148Z,-78
2018-01-12T00:21:33.357Z,-77
2018-01-12T00:22:33.707Z,-77
2018-01-12T00:23:33.304Z,-78
2018-01-12T00:24:34.017Z,-77
2018-01-12T00:25:33.265Z,-78
2018-01-12T00:26:33.721Z,-78
2018-01-12T00:27:32.861Z,-78
2018-01-12T00:28:33.215Z,-77
2018-01-12T00:29:33.663Z,-79
2018-01-12T00:30:33.189Z,-79
2018-01-12T00:31:33.556Z,-78
2018-01-12T00:32:33.701Z,-79
2018-01-12T00:33:33.133Z,-79
2018-01-12T00:34:33.832Z,-79
2018-01-12T00:35:33.351Z,-78
2018-01-12T00:36:33.586Z,-79
2018-01-12T00:37:32.968Z,-79
2018-01-12T00:38:34.026Z,-78
2018-01-12T00:39:33.340Z,-79
2018-01-12T00:40:33.645Z,-78
2018-01-12T00:41:33.019Z,-77
2018-01-12T00:42:33.283Z,-77
2018-01-12T00:43:33.509Z,-78
2018-01-12T00:44:32.808Z,-78
2018-01-12T00:45:33.028Z,-78
2018-01-12T00:46:33.497Z,-77
2018-01-12T00:47:32.863Z,-78
2018-01-12T00:48:32.996Z,-77
2018-01-12T00:49:33.227Z,-77
2018-01-12T00:50:33.601Z,-77
2018-01-12T00:51:32.870Z,-78
2018-01-12T00:52:33.110Z,-77
2018-01-12T00:53:33.451Z,-78
2018-01-12T00:54:32.829Z,-77
2018-01-12T00:55:33.217Z,-77
2018-01-12T00:56:33.726Z,-76
2018-01-12T00:57:33.125Z,-76
2018-01-12T00:58:33.448Z,-78
2018-01-12T00:59:32.904Z,-77
2018-01-12T01:00:33.217Z,-78
2018-01-12T01:01:33.679Z,-78
2018-01-12T01:02:33.037Z,-77
2018-01-12T01:03:33.327Z,-77
2018-01-12T01:04:33.666Z,-78
2018-01-12T01:05:33.139Z,-77
2018-01-12T01:06:33.473Z,-76
2018-01-12T01:07:32.852Z,-78
2018-01-12T01:08:33.021Z,-78
2018-01-12T01:09:34.657Z,-77
2018-01-12T01:10:32.985Z,-78
2018-01-12T01:11:34.254Z,-77
2018-01-12T01:12:32.710Z,-77
2018-01-12T01:13:33.228Z,-77
2018-01-12T01:14:32.636Z,-77
2018-01-12T01:15:32.979Z,-77
2018-01-12T01:16:32.609Z,-78
2018-01-12T01:17:32.704Z,-77
2018-01-12T01:18:32.948Z,-77
2018-01-12T01:19:33.914Z,-78
2018-01-12T01:20:33.308Z,-78
2018-01-12T01:21:32.438Z,-77
2018-01-12T01:22:32.882Z,-77
2018-01-12T01:23:33.001Z,-77
2018-01-12T01:24:32.378Z,-78
2018-01-12T01:25:32.673Z,-77
2018-01-12T01:26:33.089Z,-77
2018-01-12T01:27:32.728Z,-77
2018-01-12T01:28:32.952Z,-78
2018-01-12T01:29:33.306Z,-77
2018-01-12T01:30:32.604Z,-77
2018-01-12T01:31:32.906Z,-77
2018-01-12T01:32:33.384Z,-78
2018-01-12T01:33:32.745Z,-77
2018-01-12T01:34:33.265Z,-77
2018-01-12T01:35:32.447Z,-78
2018-01-12T01:36:33.375Z,-78
2018-01-12T01:37:32.808Z,-77
2018-01-12T01:38:32.453Z,-77
2018-01-12T01:39:32.705Z,-78
2018-01-12T01:40:33.070Z,-77
2018-01-12T01:41:32.490Z,-77
2018-01-12T01:42:32.764Z,-77
2018-01-12T01:43:32.908Z,-77
2018-01-12T01:44:33.240Z,-77
2018-01-12T01:45:33.334Z,-77
2018-01-12T01:46:33.593Z,-78
2018-01-12T01:47:33.016Z,-77
2018-01-12T01:48:33.461Z,-77
2018-01-12T01:49:33.129Z,-78
2018-01-12T01:50:33.562Z,-77
2018-01-12T01:51:32.828Z,-78
2018-01-12T01:52:33.221Z,-77
2018-01-12T01:53:33.565Z,-77
2018-01-12T01:55:33.918Z,-78
2018-01-12T01:56:33.096Z,-78
2018-01-12T01:57:33.613Z,-78
2018-01-12T01:58:32.914Z,-78
2018-01-12T01:59:33.344Z,-78
2018-01-12T02:00:33.721Z,-77
2018-01-12T02:01:32.872Z,-77
2018-01-12T02:02:33.339Z,-77
2018-01-12T02:03:33.817Z,-79
2018-01-12T02:04:33.290Z,-78
2018-01-12T02:05:33.465Z,-79
2018-01-12T02:06:34.471Z,-79
2018-01-12T02:07:33.604Z,-79
2018-01-12T02:08:32.988Z,-76
2018-01-12T02:09:33.426Z,-75
2018-01-12T02:10:33.744Z,-76
2018-01-12T02:11:33.329Z,-76
2018-01-12T02:12:33.497Z,-76
2018-01-12T02:13:32.761Z,-76
2018-01-12T02:14:33.244Z,-75
2018-01-12T02:15:33.524Z,-76
2018-01-12T02:16:32.817Z,-76
2018-01-12T02:17:33.030Z,-76
2018-01-12T02:18:33.209Z,-76
2018-01-12T02:19:33.691Z,-75
2018-01-12T02:20:33.152Z,-75
2018-01-12T02:21:33.674Z,-75
2018-01-12T02:22:33.250Z,-77
2018-01-12T02:23:33.603Z,-79
2018-01-12T02:24:33.045Z,-79
2018-01-12T02:25:33.553Z,-79
2018-01-12T02:26:33.105Z,-79
2018-01-12T02:27:33.528Z,-79
2018-01-12T02:28:33.227Z,-78
2018-01-12T02:29:33.646Z,-79
2018-01-12T02:30:33.676Z,-77
2018-01-12T02:31:33.074Z,-78
2018-01-12T02:32:33.577Z,-77
2018-01-12T02:33:33.206Z,-77
2018-01-12T02:34:33.853Z,-78
2018-01-12T02:35:33.292Z,-77
2018-01-12T02:36:33.824Z,-77
2018-01-12T02:37:33.099Z,-77
2018-01-12T02:38:33.617Z,-77
2018-01-12T02:39:33.131Z,-77
2018-01-12T02:40:33.422Z,-79
2018-01-12T02:41:33.042Z,-79
2018-01-12T02:42:33.531Z,-79
2018-01-12T02:43:32.818Z,-78
2018-01-12T02:44:33.480Z,-78
2018-01-12T02:45:33.909Z,-79
2018-01-12T02:46:33.486Z,-78
2018-01-12T02:47:34.013Z,-78
2018-01-12T02:48:33.535Z,-79
2018-01-12T02:49:34.006Z,-77
2018-01-12T02:50:33.196Z,-77
2018-01-12T02:51:33.685Z,-77
2018-01-12T02:52:33.089Z,-77
2018-01-12T02:53:33.277Z,-78
2018-01-12T02:54:33.831Z,-76
2018-01-12T02:55:33.453Z,-77
2018-01-12T02:56:33.612Z,-79
2018-01-12T02:57:32.927Z,-79
2018-01-12T02:58:33.380Z,-79
2018-01-12T02:59:33.811Z,-78
2018-01-12T03:00:33.301Z,-78
2018-01-12T03:01:34.020Z,-78
2018-01-12T03:02:33.406Z,-78
2018-01-12T03:03:33.719Z,-79
2018-01-12T03:04:33.195Z,-78
2018-01-12T03:05:33.794Z,-78
2018-01-12T03:06:33.597Z,-78
2018-01-12T03:07:33.350Z,-79
2018-01-12T03:08:33.738Z,-79
2018-01-12T03:09:33.147Z,-76
2018-01-12T03:10:33.312Z,-76
2018-01-12T03:11:33.756Z,-75
2018-01-12T03:12:33.295Z,-76
2018-01-12T03:13:33.623Z,-76
2018-01-12T03:14:32.857Z,-75
2018-01-12T03:15:33.314Z,-79
2018-01-12T03:16:33.565Z,-78
2018-01-12T03:17:33.210Z,-79
2018-01-12T03:18:33.662Z,-79
2018-01-12T03:19:33.182Z,-79
2018-01-12T03:20:33.641Z,-79
2018-01-12T03:21:33.094Z,-79
2018-01-12T03:22:33.707Z,-78
2018-01-12T03:23:32.874Z,-79
2018-01-12T03:24:33.450Z,-79
2018-01-12T03:25:32.844Z,-79
2018-01-12T03:26:33.160Z,-79
2018-01-12T03:27:33.665Z,-77
2018-01-12T03:28:33.314Z,-77
2018-01-12T03:29:32.853Z,-77
2018-01-12T03:30:33.167Z,-77
2018-01-12T03:31:33.528Z,-77
2018-01-12T03:32:33.992Z,-78
2018-01-12T03:33:33.304Z,-78
2018-01-12T03:34:33.568Z,-77
2018-01-12T03:35:33.027Z,-77
2018-01-12T03:36:33.634Z,-77
2018-01-12T03:37:32.826Z,-78
2018-01-12T03:38:32.962Z,-77
2018-01-12T03:39:33.413Z,-77
2018-01-12T03:40:32.738Z,-78
2018-01-12T03:41:33.223Z,-78
2018-01-12T03:42:33.749Z,-78
2018-01-12T03:43:32.922Z,-78
2018-01-12T03:44:33.563Z,-77
2018-01-12T03:45:32.702Z,-77
2018-01-12T03:46:32.975Z,-77
2018-01-12T03:47:32.365Z,-78
2018-01-12T03:48:32.590Z,-78
2018-01-12T03:49:32.970Z,-77
2018-01-12T03:50:32.520Z,-77
2018-01-12T03:51:33.112Z,-77
2018-01-12T03:52:32.544Z,-77
2018-01-12T03:53:32.928Z,-77
2018-01-12T03:54:33.106Z,-78
2018-01-12T03:55:32.561Z,-77
2018-01-12T03:56:33.100Z,-78
2018-01-12T03:57:32.424Z,-78
2018-01-12T03:58:32.658Z,-77
2018-01-12T03:59:32.935Z,-77
2018-01-12T04:00:32.124Z,-77
2018-01-12T04:01:32.710Z,-77
2018-01-12T04:02:33.172Z,-78
2018-01-12T04:03:32.670Z,-77
2018-01-12T04:04:33.136Z,-78
2018-01-12T04:05:32.641Z,-76
2018-01-12T04:06:32.884Z,-77
2018-01-12T04:07:33.219Z,-78
2018-01-12T04:08:32.691Z,-77
2018-01-12T04:09:32.913Z,-77
2018-01-12T04:10:33.289Z,-78
2018-01-12T04:11:33.338Z,-78
2018-01-12T04:12:32.739Z,-77
2018-01-12T04:13:33.269Z,-76
2018-01-12T04:14:32.526Z,-77
2018-01-12T04:15:33.034Z,-76
2018-01-12T04:16:33.475Z,-76
2018-01-12T04:17:33.760Z,-76
2018-01-12T04:18:33.212Z,-76
2018-01-12T04:19:33.443Z,-76
2018-01-12T04:20:33.842Z,-76
2018-01-12T04:21:33.193Z,-76
2018-01-12T04:22:33.586Z,-77
2018-01-12T04:23:33.031Z,-77
2018-01-12T04:24:33.380Z,-77
2018-01-12T04:25:33.563Z,-77
2018-01-12T04:26:32.851Z,-76
2018-01-12T04:27:33.026Z,-77
2018-01-12T04:28:33.193Z,-77
2018-01-12T04:29:33.676Z,-77
2018-01-12T04:30:33.094Z,-78
2018-01-12T04:31:33.246Z,-77
2018-01-12T04:32:33.613Z,-77
2018-01-12T04:33:33.868Z,-76
2018-01-12T04:34:33.083Z,-77
2018-01-12T04:35:33.160Z,-76
2018-01-12T04:36:33.340Z,-76
2018-01-12T04:37:33.576Z,-77
2018-01-12T04:38:32.806Z,-77
2018-01-12T04:39:33.108Z,-77
2018-01-12T04:40:33.305Z,-77
2018-01-12T04:41:33.661Z,-77
2018-01-12T04:42:32.826Z,-76
2018-01-12T04:43:32.998Z,-76
2018-01-12T04:44:33.538Z,-76
2018-01-12T04:45:33.888Z,-77
2018-01-12T04:46:33.208Z,-77
2018-01-12T04:47:33.574Z,-77
2018-01-12T04:48:33.653Z,-77
2018-01-12T04:49:33.131Z,-78
2018-01-12T04:50:33.652Z,-77
2018-01-12T04:51:33.212Z,-76
2018-01-12T04:52:33.662Z,-77
2018-01-12T04:53:33.152Z,-77
2018-01-12T04:54:33.374Z,-76
2018-01-12T04:55:34.022Z,-75
2018-01-12T04:56:33.560Z,-77
2018-01-12T04:57:34.163Z,-77
2018-01-12T04:58:33.605Z,-79
2018-01-12T04:59:33.127Z,-79
2018-01-12T05:00:33.706Z,-78
2018-01-12T05:01:33.188Z,-79
2018-01-12T05:02:33.780Z,-79
2018-01-12T05:03:33.341Z,-78
2018-01-12T05:04:33.880Z,-78
2018-01-12T05:05:33.615Z,-78
2018-01-12T05:06:33.106Z,-79
2018-01-12T05:07:33.654Z,-78
2018-01-12T05:08:33.235Z,-78
2018-01-12T05:09:34.203Z,-77
2018-01-12T05:10:33.787Z,-79
2018-01-12T05:11:33.363Z,-79
2018-01-12T05:12:33.939Z,-80
2018-01-12T05:13:33.461Z,-79
2018-01-12T05:14:34.023Z,-79
2018-01-12T05:15:33.562Z,-79
2018-01-12T05:16:33.327Z,-79
2018-01-12T05:17:33.810Z,-79
2018-01-12T05:18:33.228Z,-78
2018-01-12T05:19:33.955Z,-77
2018-01-12T05:20:33.452Z,-78
2018-01-12T05:21:33.911Z,-77
2018-01-12T05:22:33.882Z,-77
2018-01-12T05:23:33.222Z,-77
2018-01-12T05:24:33.553Z,-77
2018-01-12T05:25:33.964Z,-77
2018-01-12T05:26:33.586Z,-77
2018-01-12T05:27:33.904Z,-78
2018-01-12T05:28:33.156Z,-78
2018-01-12T05:29:33.437Z,-77
2018-01-12T05:30:33.682Z,-78
2018-01-12T05:31:34.113Z,-77
2018-01-12T05:32:33.258Z,-77
2018-01-12T05:33:33.637Z,-77
2018-01-12T05:34:33.864Z,-77
2018-01-12T05:35:33.213Z,-77
2018-01-12T05:36:33.425Z,-77
2018-01-12T05:37:33.946Z,-77
2018-01-12T05:38:33.274Z,-75
2018-01-12T05:39:33.826Z,-76
2018-01-12T05:40:33.017Z,-76
2018-01-12T05:41:33.434Z,-76
2018-01-12T05:42:33.864Z,-78
2018-01-12T05:43:33.297Z,-77
2018-01-12T05:44:33.696Z,-77
2018-01-12T05:45:33.901Z,-77
2018-01-12T05:46:33.059Z,-77
2018-01-12T05:47:33.680Z,-78
2018-01-12T05:48:33.660Z,-77
2018-01-12T05:49:33.924Z,-79
2018-01-12T05:50:33.187Z,-79
2018-01-12T05:51:33.415Z,-79
2018-01-12T05:52:33.675Z,-79
2018-01-12T05:53:34.053Z,-79
2018-01-12T05:54:33.217Z,-79
2018-01-12T05:55:33.485Z,-79
2018-01-12T05:56:33.906Z,-78
2018-01-12T05:57:33.377Z,-75
2018-01-12T05:58:33.532Z,-76
2018-01-12T05:59:33.886Z,-75
2018-01-12T06:00:33.166Z,-76
2018-01-12T06:01:33.669Z,-76
2018-01-12T06:02:33.800Z,-76
2018-01-12T06:03:34.182Z,-76
2018-01-12T06:04:33.410Z,-76
2018-01-12T06:05:33.699Z,-75
2018-01-12T06:06:33.920Z,-76
2018-01-12T06:07:33.115Z,-76
2018-01-12T06:08:33.863Z,-76
2018-01-12T06:09:33.347Z,-76
2018-01-12T06:10:33.502Z,-76
2018-01-12T06:11:33.651Z,-77
2018-01-12T06:12:34.260Z,-76
2018-01-12T06:13:33.714Z,-79
2018-01-12T06:14:34.118Z,-77
2018-01-12T06:15:33.297Z,-79
2018-01-12T06:16:33.559Z,-79
2018-01-12T06:17:33.136Z,-78
2018-01-12T06:18:33.552Z,-78
2018-01-12T06:19:32.863Z,-78
2018-01-12T06:20:33.130Z,-78
2018-01-12T06:21:33.420Z,-79
2018-01-12T06:22:32.523Z,-79
2018-01-12T06:23:32.924Z,-79
2018-01-12T06:24:33.448Z,-79
2018-01-12T06:25:32.814Z,-79
2018-01-12T06:26:33.196Z,-78
2018-01-12T06:27:33.301Z,-78
2018-01-12T06:28:33.567Z,-78
2018-01-12T06:29:32.646Z,-78
2018-01-12T06:30:32.938Z,-78
2018-01-12T06:31:33.518Z,-78
2018-01-12T06:32:32.784Z,-78
2018-01-12T06:33:33.046Z,-79
2018-01-12T06:34:33.168Z,-79
2018-01-12T06:35:33.616Z,-78
2018-01-12T06:36:32.980Z,-78
2018-01-12T06:37:32.997Z,-79
2018-01-12T06:38:33.299Z,-79
2018-01-12T06:39:33.336Z,-78
2018-01-12T06:40:33.532Z,-78
2018-01-12T06:41:32.910Z,-77
2018-01-12T06:42:33.135Z,-78
2018-01-12T06:43:33.526Z,-77
2018-01-12T06:44:32.663Z,-77
2018-01-12T06:45:32.873Z,-79
2018-01-12T06:46:33.047Z,-79
2018-01-12T06:47:33.817Z,-78
2018-01-12T06:48:33.245Z,-78
2018-01-12T06:49:32.705Z,-78
2018-01-12T06:50:32.793Z,-79
2018-01-12T06:51:33.065Z,-78
2018-01-12T06:52:32.530Z,-78
2018-01-12T06:53:33.023Z,-78
2018-01-12T06:54:33.204Z,-77
2018-01-12T06:55:32.349Z,-77
2018-01-12T06:56:32.690Z,-77
2018-01-12T06:57:32.807Z,-78
2018-01-12T06:58:32.970Z,-78
2018-01-12T06:59:33.455Z,-78
2018-01-12T07:00:32.755Z,-78
2018-01-12T07:01:32.934Z,-78
2018-01-12T07:02:33.298Z,-78
2018-01-12T07:03:32.879Z,-79
2018-01-12T07:04:33.445Z,-78
2018-01-12T07:05:32.940Z,-78
2018-01-12T07:06:33.469Z,-79
2018-01-12T07:07:32.868Z,-77
2018-01-12T07:08:33.170Z,-78
2018-01-12T07:09:32.472Z,-78
2018-01-12T07:10:32.634Z,-78
2018-01-12T07:11:32.958Z,-78
2018-01-12T07:12:33.420Z,-77
2018-01-12T07:13:32.654Z,-79
2018-01-12T07:14:33.059Z,-78
2018-01-12T07:15:33.432Z,-79
2018-01-12T07:16:32.672Z,-78
2018-01-12T07:17:33.453Z,-80
2018-01-12T07:18:33.020Z,-80
2018-01-12T07:19:33.497Z,-80
2018-01-12T07:20:32.894Z,-80
2018-01-12T07:21:33.323Z,-79
2018-01-12T07:22:33.902Z,-78
2018-01-12T07:23:33.454Z,-78
2018-01-12T07:24:33.741Z,-79
2018-01-12T07:25:33.117Z,-78
2018-01-12T07:26:33.535Z,-79
2018-01-12T07:27:34.915Z,-78
2018-01-12T07:28:33.255Z,-79
2018-01-12T07:29:33.712Z,-80
2018-01-12T07:30:33.072Z,-78
2018-01-12T07:31:33.184Z,-79
2018-01-12T07:32:33.826Z,-79
2018-01-12T07:33:33.229Z,-80
2018-01-12T07:34:33.499Z,-78
2018-01-12T07:35:32.892Z,-78
2018-01-12T07:36:33.448Z,-77
2018-01-12T07:37:33.651Z,-77
2018-01-12T07:38:33.052Z,-77
2018-01-12T07:39:33.477Z,-77
2018-01-12T07:40:33.709Z,-77
2018-01-12T07:41:33.039Z,-77
2018-01-12T07:42:33.407Z,-77
2018-01-12T07:43:33.809Z,-77
2018-01-12T07:44:33.279Z,-77
2018-01-12T07:45:33.475Z,-77
2018-01-12T07:46:33.915Z,-77
2018-01-12T07:47:33.251Z,-77
2018-01-12T07:48:33.749Z,-77
2018-01-12T07:49:33.225Z,-77
2018-01-12T07:50:33.530Z,-77
2018-01-12T07:51:32.830Z,-77
2018-01-12T07:52:34.033Z,-77
2018-01-12T07:53:33.193Z,-77
2018-01-12T07:54:33.849Z,-76
2018-01-12T07:55:33.290Z,-77
2018-01-12T07:56:33.500Z,-79
2018-01-12T07:57:32.649Z,-78
2018-01-12T07:58:32.944Z,-78
2018-01-12T07:59:33.280Z,-78
2018-01-12T08:00:33.432Z,-81
2018-01-12T08:01:32.723Z,-80
2018-01-12T08:02:32.901Z,-81
2018-01-12T08:03:33.214Z,-81
2018-01-12T08:04:33.608Z,-80
2018-01-12T08:05:32.786Z,-81
2018-01-12T08:06:32.999Z,-80
2018-01-12T08:07:33.218Z,-79
2018-01-12T08:08:33.594Z,-79
2018-01-12T08:09:33.186Z,-80
2018-01-12T08:10:33.481Z,-80
2018-01-12T08:11:33.488Z,-80
2018-01-12T08:12:32.896Z,-78
2018-01-12T08:13:33.294Z,-78
2018-01-12T08:14:33.540Z,-79
2018-01-12T08:15:32.866Z,-79
2018-01-12T08:16:33.510Z,-79
2018-01-12T08:17:32.780Z,-79
2018-01-12T08:18:33.087Z,-79
2018-01-12T08:19:33.402Z,-79
2018-01-12T08:20:33.050Z,-75
2018-01-12T08:21:33.460Z,-75
2018-01-12T08:22:32.840Z,-75
2018-01-12T08:23:33.191Z,-75
2018-01-12T08:24:32.306Z,-75
2018-01-12T08:25:32.637Z,-75
2018-01-12T08:26:32.946Z,-75
2018-01-12T08:27:33.500Z,-75
2018-01-12T08:28:32.875Z,-75
2018-01-12T08:29:32.942Z,-75
2018-01-12T08:30:33.299Z,-75
2018-01-12T08:31:32.728Z,-75
2018-01-12T08:32:33.174Z,-75
2018-01-12T08:33:32.707Z,-75
2018-01-12T08:34:33.098Z,-75
2018-01-12T08:35:33.674Z,-75
2018-01-12T08:36:32.917Z,-75
2018-01-12T08:37:33.107Z,-77
2018-01-12T08:38:33.566Z,-75
2018-01-12T08:39:32.963Z,-74
2018-01-12T08:40:33.302Z,-73
2018-01-12T08:41:33.027Z,-74
2018-01-12T08:42:32.628Z,-74
2018-01-12T08:43:32.799Z,-74
2018-01-12T08:44:33.047Z,-75
2018-01-12T08:45:33.271Z,-76
2018-01-12T08:46:32.523Z,-75
2018-01-12T08:47:32.764Z,-75
2018-01-12T08:48:33.121Z,-76
2018-01-12T08:49:34.105Z,-77
2018-01-12T08:50:33.660Z,-76
2018-01-12T08:51:33.148Z,-75
2018-01-12T08:52:32.718Z,-75
2018-01-12T08:53:32.938Z,-76
2018-01-12T08:54:33.143Z,-76
2018-01-12T08:55:32.577Z,-74
2018-01-12T08:56:32.751Z,-73
2018-01-12T08:57:33.073Z,-75
2018-01-12T08:58:33.472Z,-76
2018-01-12T08:59:32.800Z,-77
2018-01-12T09:00:33.327Z,-77
2018-01-12T09:01:32.786Z,-77
2018-01-12T09:02:32.982Z,-77
2018-01-12T09:03:33.518Z,-77
2018-01-12T09:04:32.690Z,-75
2018-01-12T09:05:33.101Z,-76
2018-01-12T09:06:34.429Z,-76
2018-01-12T09:07:32.672Z,-77
2018-01-12T09:08:33.071Z,-77
2018-01-12T09:09:33.233Z,-77
2018-01-12T09:10:32.661Z,-78
2018-01-12T09:11:32.764Z,-77
2018-01-12T09:12:32.987Z,-78
2018-01-12T09:13:33.207Z,-77
2018-01-12T09:14:32.743Z,-77
2018-01-12T09:15:32.912Z,-77
2018-01-12T09:16:33.201Z,-78
2018-01-12T09:17:33.504Z,-77
2018-01-12T09:18:32.822Z,-78
2018-01-12T09:19:33.223Z,-77
2018-01-12T09:20:32.653Z,-77
2018-01-12T09:21:33.041Z,-77
2018-01-12T09:22:33.350Z,-77
2018-01-12T09:23:33.545Z,-77
2018-01-12T09:24:33.698Z,-75
2018-01-12T09:25:33.099Z,-77
2018-01-12T09:26:33.285Z,-76
2018-01-12T09:27:33.577Z,-78
2018-01-12T09:28:33.871Z,-78
2018-01-12T09:29:33.165Z,-78
2018-01-12T09:30:33.522Z,-78
2018-01-12T09:31:33.951Z,-78
2018-01-12T09:32:33.345Z,-78
2018-01-12T09:33:33.592Z,-78
2018-01-12T09:34:33.921Z,-78
2018-01-12T09:35:33.400Z,-78
2018-01-12T09:36:33.579Z,-77
2018-01-12T09:37:33.989Z,-77
2018-01-12T09:38:33.355Z,-77
2018-01-12T09:39:33.540Z,-77
2018-01-12T09:40:33.706Z,-77
2018-01-12T09:41:34.088Z,-77
2018-01-12T09:42:33.400Z,-77
2018-01-12T09:43:33.683Z,-78
2018-01-12T09:44:34.128Z,-77
2018-01-12T09:45:33.608Z,-78
2018-01-12T09:46:33.107Z,-78
2018-01-12T09:47:33.278Z,-78
2018-01-12T09:48:33.400Z,-77
2018-01-12T09:49:33.845Z,-76
2018-01-12T09:50:33.244Z,-82
2018-01-12T09:51:33.816Z,-83
2018-01-12T09:52:33.153Z,-83
2018-01-12T09:53:33.523Z,-82
2018-01-12T09:54:32.971Z,-81
2018-01-12T09:55:33.561Z,-80
2018-01-12T09:56:33.144Z,-80
2018-01-12T09:57:33.377Z,-80
2018-01-12T09:58:32.675Z,-79
2018-01-12T09:59:32.998Z,-79
2018-01-12T10:00:33.521Z,-79
2018-01-12T10:01:35.574Z,-80
2018-01-12T10:02:34.168Z,-81
2018-01-12T10:03:34.744Z,-79
2018-01-12T10:04:32.895Z,-81
2018-01-12T10:05:36.204Z,-81
2018-01-12T10:06:34.801Z,-81
2018-01-12T10:07:35.431Z,-79
2018-01-12T10:08:33.460Z,-79
2018-01-12T10:09:34.355Z,-78
2018-01-12T10:10:35.001Z,-79
2018-01-12T10:11:34.742Z,-80
2018-01-12T10:12:35.022Z,-80
2018-01-12T10:13:37.888Z,-80
2018-01-12T10:14:36.821Z,-80
2018-01-12T10:15:33.132Z,-80
2018-01-12T10:16:33.606Z,-80
2018-01-12T10:17:33.353Z,-81
2018-01-12T10:18:32.797Z,-81
2018-01-12T10:19:32.915Z,-81
2018-01-12T10:20:34.026Z,-80
2018-01-12T10:21:33.818Z,-79
2018-01-12T10:22:33.324Z,-80
2018-01-12T10:23:34.084Z,-79
2018-01-12T10:24:33.245Z,-79
2018-01-12T10:25:34.308Z,-79
2018-01-12T10:26:34.724Z,-77
2018-01-12T10:27:34.193Z,-80
2018-01-12T10:28:33.489Z,-81
2018-01-12T10:29:34.664Z,-81
2018-01-12T10:30:34.127Z,-81
2018-01-12T10:31:34.218Z,-80
2018-01-12T10:32:33.498Z,-80
2018-01-12T10:33:33.858Z,-80
2018-01-12T10:34:34.237Z,-78
2018-01-12T10:35:33.531Z,-78
2018-01-12T10:36:33.867Z,-79
2018-01-12T10:37:33.964Z,-79
2018-01-12T10:38:33.231Z,-78
2018-01-12T10:39:33.626Z,-79
2018-01-12T10:40:34.177Z,-79
2018-01-12T10:41:33.639Z,-79
2018-01-12T10:42:34.024Z,-81
2018-01-12T10:43:33.512Z,-80
2018-01-12T10:44:33.907Z,-80
2018-01-12T10:45:33.085Z,-80
2018-01-12T10:46:33.504Z,-80
2018-01-12T10:47:33.747Z,-80
2018-01-12T10:48:34.258Z,-80
2018-01-12T10:49:34.051Z,-80
2018-01-12T10:50:33.332Z,-79
2018-01-12T10:51:33.714Z,-80
2018-01-12T10:52:33.762Z,-80
2018-01-12T10:53:32.880Z,-79
2018-01-12T10:54:33.240Z,-79
2018-01-12T10:55:33.677Z,-78
2018-01-12T10:56:33.908Z,-79
2018-01-12T10:57:33.338Z,-79
2018-01-12T10:58:33.555Z,-79
2018-01-12T10:59:33.903Z,-79
2018-01-12T11:00:33.305Z,-80
2018-01-12T11:01:33.609Z,-80
2018-01-12T11:02:33.924Z,-78
2018-01-12T11:03:33.221Z,-78
2018-01-12T11:04:33.289Z,-80
2018-01-12T11:05:33.635Z,-80
2018-01-12T11:06:33.936Z,-80
2018-01-12T11:07:33.236Z,-79
2018-01-12T11:08:33.341Z,-80
2018-01-12T11:09:33.426Z,-78
2018-01-12T11:10:34.266Z,-79
2018-01-12T11:11:33.621Z,-79
2018-01-12T11:12:33.993Z,-78
2018-01-12T11:13:33.429Z,-78
2018-01-12T11:14:33.673Z,-78
2018-01-12T11:15:34.090Z,-78
2018-01-12T11:16:33.350Z,-78
2018-01-12T11:17:33.470Z,-78
2018-01-12T11:18:33.928Z,-81
2018-01-12T11:19:33.227Z,-78
2018-01-12T11:20:33.433Z,-80
2018-01-12T11:21:33.517Z,-79
2018-01-12T11:22:33.867Z,-80
2018-01-12T11:23:33.812Z,-79
2018-01-12T11:24:33.915Z,-79
2018-01-12T11:25:33.187Z,-79
2018-01-12T11:26:33.468Z,-79
2018-01-12T11:27:33.789Z,-78
2018-01-12T11:28:34.025Z,-79
2018-01-12T11:29:33.104Z,-79
2018-01-12T11:30:33.387Z,-81
2018-01-12T11:31:34.038Z,-81
2018-01-12T11:32:33.490Z,-81
2018-01-12T11:33:33.843Z,-80
2018-01-12T11:34:33.911Z,-80
2018-01-12T11:35:33.152Z,-81
2018-01-12T11:36:33.564Z,-80
2018-01-12T11:37:34.018Z,-80
2018-01-12T11:38:33.224Z,-80
2018-01-12T11:39:33.393Z,-80
2018-01-12T11:40:33.479Z,-81
2018-01-12T11:41:33.654Z,-80
2018-01-12T11:42:33.799Z,-80
2018-01-12T11:43:33.375Z,-78
2018-01-12T11:44:33.684Z,-78
2018-01-12T11:45:33.917Z,-80
2018-01-12T11:46:32.982Z,-80
2018-01-12T11:47:33.165Z,-80
2018-01-12T11:48:33.642Z,-80
2018-01-12T11:49:33.696Z,-78
2018-01-12T11:50:33.922Z,-79
2018-01-12T11:51:33.249Z,-78
2018-01-12T11:52:33.551Z,-79
2018-01-12T11:53:33.891Z,-79
2018-01-12T11:54:33.370Z,-79
2018-01-12T11:55:33.445Z,-79
2018-01-12T11:56:33.740Z,-78
2018-01-12T11:57:33.060Z,-78
2018-01-12T11:58:33.343Z,-78
2018-01-12T11:59:33.599Z,-78
2018-01-12T12:00:32.743Z,-80
2018-01-12T12:01:32.958Z,-79
2018-01-12T12:02:33.172Z,-79
2018-01-12T12:03:33.701Z,-79
2018-01-12T12:04:33.201Z,-79
2018-01-12T12:05:33.632Z,-79
2018-01-12T12:06:33.036Z,-79
2018-01-12T12:07:33.282Z,-79
2018-01-12T12:08:34.045Z,-79
2018-01-12T12:09:33.293Z,-79
2018-01-12T12:10:33.502Z,-79
2018-01-12T12:11:33.684Z,-77
2018-01-12T12:12:33.111Z,-79
2018-01-12T12:13:33.477Z,-79
2018-01-12T12:14:33.892Z,-79
2018-01-12T12:15:33.383Z,-78
2018-01-12T12:16:34.084Z,-79
2018-01-12T12:17:34.322Z,-79
2018-01-12T12:18:33.652Z,-79
2018-01-12T12:19:33.020Z,-79
2018-01-12T12:20:33.465Z,-79
2018-01-12T12:21:36.001Z,-79
2018-01-12T12:22:33.176Z,-79
2018-01-12T12:23:33.560Z,-78
2018-01-12T12:24:37.237Z,-79
2018-01-12T12:25:35.046Z,-79
2018-01-12T12:26:34.092Z,-79
2018-01-12T12:27:33.528Z,-79
2018-01-12T12:28:33.898Z,-79
2018-01-12T12:29:33.836Z,-79
2018-01-12T12:30:33.224Z,-79
2018-01-12T12:31:33.745Z,-79
2018-01-12T12:33:34.707Z,-79
2018-01-12T12:34:34.227Z,-78
2018-01-12T12:35:34.270Z,-79
2018-01-12T12:36:33.870Z,-79
2018-01-12T12:37:33.200Z,-79
2018-01-12T12:38:34.374Z,-79
2018-01-12T12:39:33.638Z,-80
2018-01-12T12:40:34.087Z,-79
2018-01-12T12:41:34.864Z,-79
2018-01-12T12:42:36.280Z,-79
2018-01-12T12:43:33.721Z,-80
2018-01-12T12:44:35.302Z,-80
2018-01-12T12:45:33.695Z,-80
2018-01-12T12:46:34.489Z,-80
2018-01-12T12:47:33.418Z,-80
2018-01-12T12:48:33.751Z,-80
2018-01-12T12:49:34.618Z,-80
2018-01-12T12:50:33.974Z,-80
2018-01-12T12:51:33.262Z,-80
2018-01-12T12:52:33.670Z,-80
2018-01-12T12:53:34.111Z,-80
2018-01-12T12:54:33.556Z,-80
2018-01-12T12:55:34.091Z,-80
2018-01-12T12:56:33.400Z,-80
2018-01-12T12:57:33.603Z,-80
2018-01-12T12:58:33.375Z,-80
2018-01-12T12:59:34.721Z,-80
2018-01-12T13:00:33.825Z,-80
2018-01-12T13:01:33.598Z,-80
2018-01-12T13:02:34.521Z,-80
2018-01-12T13:03:33.812Z,-79
2018-01-12T13:04:33.181Z,-79
2018-01-12T13:05:33.802Z,-79
2018-01-12T13:06:33.837Z,-80
2018-01-12T13:07:33.035Z,-79
2018-01-12T13:08:33.500Z,-79
2018-01-12T13:09:44.732Z,-79
2018-01-12T13:10:36.234Z,-79
2018-01-12T13:11:38.966Z,-79
2018-01-12T13:12:38.505Z,-79
2018-01-12T13:13:36.503Z,-79
2018-01-12T13:14:36.140Z,-79
2018-01-12T13:15:33.619Z,-79
2018-01-12T13:16:33.926Z,-79
2018-01-12T13:17:33.273Z,-79
2018-01-12T13:18:35.937Z,-79
2018-01-12T13:19:33.334Z,-79
2018-01-12T13:20:34.325Z,-79
2018-01-12T13:21:33.685Z,-79
2018-01-12T13:22:32.998Z,-79
2018-01-12T13:23:33.136Z,-78
2018-01-12T13:24:33.524Z,-80
2018-01-12T13:25:34.088Z,-78
2018-01-12T13:26:33.895Z,-78
2018-01-12T13:27:33.296Z,-78
2018-01-12T13:28:32.656Z,-78
2018-01-12T13:29:33.081Z,-78
2018-01-12T13:30:32.721Z,-78
2018-01-12T13:31:33.266Z,-78
2018-01-12T13:32:32.680Z,-79
2018-01-12T13:33:33.233Z,-79
2018-01-12T13:34:32.397Z,-79
2018-01-12T13:35:32.884Z,-79
2018-01-12T13:36:33.335Z,-79
2018-01-12T13:37:32.868Z,-79
2018-01-12T13:38:33.171Z,-79
2018-01-12T13:39:33.182Z,-79
2018-01-12T13:40:32.658Z,-79
2018-01-12T13:41:32.870Z,-79
2018-01-12T13:42:33.366Z,-79
2018-01-12T13:43:32.670Z,-79
2018-01-12T13:44:33.204Z,-79
2018-01-12T13:45:32.605Z,-79
2018-01-12T13:46:33.026Z,-78
2018-01-12T13:47:33.194Z,-78
2018-01-12T13:48:32.456Z,-80